Time;durP1;ratioP1;P1;durP2;ratioP2;P2;SDS_P1;SDS_P2;PMS_P1;PMS_P2;Temp;Humidity;BMP_temperature;BMP_pressure;BME280_temperature;BME280_humidity;BME280_pressure;Samples;Min_cycle;Max_cycle;Signal;HPM_P1;HPM_P2
2021/04/08 00:01:22;;;;;;;4.27;1.27;;;;;;;;;;5087539;28;20604;-66
2021/04/08 00:03:47;;;;;;;3.40;1.70;;;;;;;;;;5073716;28;20179;-66
2021/04/08 00:06:12;;;;;;;2.63;1.10;;;;;;;;;;5077626;28;20165;-67
2021/04/08 00:08:38;;;;;;;1.93;0.67;;;;;;;;;;5078500;28;20177;-67
2021/04/08 00:11:03;;;;;;;5.27;1.07;;;;;;;;;;5089574;28;20222;-66
2021/04/08 00:13:28;;;;;;;4.10;0.80;;;;;;;;;;5088695;28;20188;-67
2021/04/08 00:15:54;;;;;;;3.23;0.63;;;;;;;;;;5079946;28;20200;-67
2021/04/08 00:18:19;;;;;;;2.27;0.70;;;;;;;;;;5087899;28;20676;-66
2021/04/08 00:20:44;;;;;;;3.90;0.70;;;;;;;;;;5073741;28;20217;-66
2021/04/08 00:23:09;;;;;;;6.13;1.00;;;;;;;;;;5073084;28;20165;-66
2021/04/08 00:25:36;;;;;;;2.90;0.77;;;;;;;;;;5085831;28;20173;-67
2021/04/08 00:28:02;;;;;;;3.70;0.80;;;;;;;;;;5081743;28;20535;-64
2021/04/08 00:30:27;;;;;;;1.37;0.70;;;;;;;;;;5078205;28;20249;-67
2021/04/08 00:32:52;;;;;;;2.33;0.80;;;;;;;;;;5087599;28;20195;-67
2021/04/08 00:35:18;;;;;;;3.70;0.80;;;;;;;;;;5077751;28;20293;-67
2021/04/08 00:37:43;;;;;;;2.57;0.70;;;;;;;;;;5080392;28;20184;-67
2021/04/08 00:40:09;;;;;;;5.90;1.30;;;;;;;;;;5072112;28;20207;-67
2021/04/08 00:42:34;;;;;;;5.10;1.07;;;;;;;;;;5087166;28;20173;-67
2021/04/08 00:44:59;;;;;;;1.77;0.90;;;;;;;;;;5088603;28;20164;-67
2021/04/08 00:47:25;;;;;;;2.07;0.90;;;;;;;;;;5085929;28;20168;-67
2021/04/08 00:49:50;;;;;;;2.83;0.60;;;;;;;;;;5083170;28;20491;-67
2021/04/08 00:52:15;;;;;;;3.33;1.83;;;;;;;;;;5078480;28;20173;-67
2021/04/08 00:54:40;;;;;;;3.10;0.80;;;;;;;;;;5083150;28;20184;-67
2021/04/08 00:57:06;;;;;;;3.50;0.80;;;;;;;;;;5085232;28;20555;-65
2021/04/08 00:59:31;;;;;;;6.80;0.80;;;;;;;;;;5092965;28;20187;-67
2021/04/08 01:01:57;;;;;;;4.97;0.87;;;;;;;;;;5072304;28;20211;-66
2021/04/08 01:04:22;;;;;;;4.63;1.47;;;;;;;;;;5077100;28;20658;-67
2021/04/08 01:06:47;;;;;;;2.73;0.97;;;;;;;;;;5081033;28;20604;-67
2021/04/08 01:09:12;;;;;;;8.07;1.63;;;;;;;;;;5088215;28;20182;-66
2021/04/08 01:11:38;;;;;;;3.13;1.77;;;;;;;;;;5073945;28;20212;-67
2021/04/08 01:14:03;;;;;;;6.37;1.40;;;;;;;;;;5071114;28;21792;-67
2021/04/08 01:16:39;;;;;;;6.10;1.30;;;;;;;;;;5085409;28;20287;-67
2021/04/08 01:19:14;;;;;;;5.43;1.90;;;;;;;;;;5080982;28;20184;-67
2021/04/08 01:21:46;;;;;;;7.00;1.70;;;;;;;;;;5075888;28;20223;-67
2021/04/08 01:24:21;;;;;;;2.50;1.33;;;;;;;;;;5081089;28;20172;-67
2021/04/08 01:27:10;;;;;;;6.13;1.60;;;;;;;;;;5083580;28;20664;-67
2021/04/08 01:29:41;;;;;;;5.13;1.50;;;;;;;;;;5077336;28;20234;-67
2021/04/08 01:32:07;;;;;;;5.83;1.37;;;;;;;;;;5082649;28;20203;-66
2021/04/08 01:34:33;;;;;;;7.60;1.73;;;;;;;;;;5077899;28;20193;-65
2021/04/08 01:37:00;;;;;;;4.97;1.60;;;;;;;;;;5083344;28;20214;-66
2021/04/08 01:39:25;;;;;;;5.93;1.30;;;;;;;;;;5079085;28;20223;-66
2021/04/08 01:41:53;;;;;;;5.97;1.50;;;;;;;;;;5084822;28;20635;-66
2021/04/08 01:44:21;;;;;;;3.93;1.37;;;;;;;;;;5076466;28;20203;-66
2021/04/08 01:46:49;;;;;;;3.53;1.33;;;;;;;;;;5081133;28;20220;-67
2021/04/08 01:49:16;;;;;;;7.57;1.30;;;;;;;;;;5076284;28;20177;-67
2021/04/08 01:51:41;;;;;;;7.03;1.80;;;;;;;;;;5079955;28;20239;-67
2021/04/08 01:54:07;;;;;;;5.67;1.73;;;;;;;;;;5080893;28;20208;-66
2021/04/08 01:56:34;;;;;;;3.40;1.30;;;;;;;;;;5084069;28;20185;-67
2021/04/08 01:59:00;;;;;;;2.43;1.40;;;;;;;;;;5073921;28;20180;-67
2021/04/08 02:01:25;;;;;;;3.13;1.10;;;;;;;;;;5078431;28;20208;-67
2021/04/08 02:03:50;;;;;;;3.03;1.10;;;;;;;;;;5077750;28;20169;-66
2021/04/08 02:06:16;;;;;;;4.17;1.30;;;;;;;;;;5081350;28;20237;-67
2021/04/08 02:08:43;;;;;;;3.27;2.00;;;;;;;;;;5082147;28;20164;-67
2021/04/08 02:11:09;;;;;;;4.33;1.03;;;;;;;;;;5074929;28;20620;-66
2021/04/08 02:13:35;;;;;;;3.90;1.37;;;;;;;;;;5082557;28;20469;-66
2021/04/08 02:16:01;;;;;;;4.40;1.47;;;;;;;;;;5079115;28;20184;-66
2021/04/08 02:18:28;;;;;;;4.83;1.77;;;;;;;;;;5082531;28;20180;-66
2021/04/08 02:20:54;;;;;;;5.57;1.30;;;;;;;;;;5077029;28;20200;-66
2021/04/08 02:23:23;;;;;;;2.43;0.90;;;;;;;;;;5081198;28;20182;-66
2021/04/08 02:25:49;;;;;;;2.40;0.90;;;;;;;;;;5070858;28;20256;-66
2021/04/08 02:28:15;;;;;;;5.23;1.07;;;;;;;;;;5076263;28;20661;-66
2021/04/08 02:30:46;;;;;;;3.23;1.10;;;;;;;;;;5073960;28;20196;-66
2021/04/08 02:33:21;;;;;;;3.27;0.70;;;;;;;;;;5075081;28;20670;-67
2021/04/08 02:35:47;;;;;;;5.50;0.93;;;;;;;;;;5080572;28;20604;-67
2021/04/08 02:38:12;;;;;;;1.40;0.80;;;;;;;;;;5083122;28;20179;-66
2021/04/08 02:40:38;;;;;;;1.53;0.90;;;;;;;;;;5084198;28;20210;-65
2021/04/08 02:43:03;;;;;;;1.50;0.77;;;;;;;;;;5080070;28;20181;-66
2021/04/08 02:45:28;;;;;;;4.83;1.10;;;;;;;;;;5083867;28;20180;-67
2021/04/08 02:47:53;;;;;;;3.53;1.10;;;;;;;;;;5085115;28;20226;-66
2021/04/08 02:50:18;;;;;;;1.87;0.93;;;;;;;;;;5077933;28;20242;-67
2021/04/08 02:52:52;;;;;;;4.90;1.30;;;;;;;;;;5077577;28;20215;-67
2021/04/08 02:55:26;;;;;;;6.37;1.77;;;;;;;;;;5086096;28;20189;-67
2021/04/08 02:58:01;;;;;;;7.90;0.97;;;;;;;;;;5074848;28;20188;-66
2021/04/08 03:00:31;;;;;;;2.20;1.33;;;;;;;;;;5078692;28;20224;-66
2021/04/08 03:03:00;;;;;;;5.23;1.10;;;;;;;;;;5078794;28;20306;-65
2021/04/08 03:05:26;;;;;;;5.17;1.40;;;;;;;;;;5078668;28;20187;-67
2021/04/08 03:07:53;;;;;;;5.03;1.30;;;;;;;;;;5086123;28;20184;-66
2021/04/08 03:10:18;;;;;;;5.07;1.60;;;;;;;;;;5082428;28;20203;-66
2021/04/08 03:12:48;;;;;;;5.20;1.40;;;;;;;;;;5083513;28;20264;-65
2021/04/08 03:15:14;;;;;;;9.63;1.60;;;;;;;;;;5085205;28;20188;-67
2021/04/08 03:17:41;;;;;;;4.50;1.40;;;;;;;;;;5081679;28;20239;-67
2021/04/08 03:20:07;;;;;;;3.40;1.60;;;;;;;;;;5089675;28;20250;-67
2021/04/08 03:22:33;;;;;;;5.53;1.77;;;;;;;;;;5081361;28;20173;-66
2021/04/08 03:24:58;;;;;;;7.87;2.27;;;;;;;;;;5087646;28;20173;-66
2021/04/08 03:27:24;;;;;;;4.00;1.90;;;;;;;;;;5088143;28;20179;-67
2021/04/08 03:29:50;;;;;;;5.40;1.60;;;;;;;;;;5089082;28;20552;-67
2021/04/08 03:32:18;;;;;;;5.13;1.60;;;;;;;;;;5084997;28;20185;-67
2021/04/08 03:34:44;;;;;;;4.33;1.40;;;;;;;;;;5086900;28;20206;-67
2021/04/08 03:37:09;;;;;;;4.77;1.30;;;;;;;;;;5084353;28;20185;-66
2021/04/08 03:39:35;;;;;;;6.57;2.17;;;;;;;;;;5087468;28;20192;-67
2021/04/08 03:42:00;;;;;;;4.10;1.40;;;;;;;;;;5081002;28;20681;-67
2021/04/08 03:44:26;;;;;;;4.67;1.27;;;;;;;;;;5079808;28;20212;-66
2021/04/08 03:46:54;;;;;;;8.17;1.70;;;;;;;;;;5082632;28;20181;-65
2021/04/08 03:49:20;;;;;;;2.47;1.40;;;;;;;;;;5088068;28;20309;-67
2021/04/08 03:51:45;;;;;;;6.53;1.50;;;;;;;;;;5082911;28;20203;-67
2021/04/08 03:54:12;;;;;;;4.60;1.70;;;;;;;;;;5087619;28;20184;-67
2021/04/08 03:56:39;;;;;;;4.57;1.77;;;;;;;;;;5079885;28;20541;-67
2021/04/08 03:59:05;;;;;;;3.13;1.40;;;;;;;;;;5076576;28;20218;-66
2021/04/08 04:01:31;;;;;;;4.67;1.60;;;;;;;;;;5083339;28;20721;-67
2021/04/08 04:03:57;;;;;;;5.73;2.00;;;;;;;;;;5079940;28;20178;-67
2021/04/08 04:06:22;;;;;;;3.77;1.33;;;;;;;;;;5091213;28;20168;-67
2021/04/08 04:08:48;;;;;;;4.30;1.53;;;;;;;;;;5081392;28;20179;-67
2021/04/08 04:11:13;;;;;;;3.03;1.63;;;;;;;;;;5082149;28;20196;-66
2021/04/08 04:13:39;;;;;;;3.30;1.70;;;;;;;;;;5089495;28;20176;-66
2021/04/08 04:16:05;;;;;;;4.30;1.80;;;;;;;;;;5075702;28;20572;-67
2021/04/08 04:18:31;;;;;;;5.03;1.83;;;;;;;;;;5082666;28;20185;-67
2021/04/08 04:20:56;;;;;;;4.30;2.27;;;;;;;;;;5087517;28;20200;-67
2021/04/08 04:23:22;;;;;;;6.27;2.10;;;;;;;;;;5082480;28;20366;-67
2021/04/08 04:25:47;;;;;;;7.07;2.63;;;;;;;;;;5083938;28;20177;-67
2021/04/08 04:28:12;;;;;;;6.17;2.63;;;;;;;;;;5085288;28;20177;-66
2021/04/08 04:30:38;;;;;;;3.87;1.90;;;;;;;;;;5079515;28;20356;-66
2021/04/08 04:33:03;;;;;;;8.13;1.97;;;;;;;;;;5078573;28;20173;-65
2021/04/08 04:35:28;;;;;;;8.73;2.37;;;;;;;;;;5079581;28;20184;-67
2021/04/08 04:37:53;;;;;;;5.67;2.23;;;;;;;;;;5079729;28;20264;-66
2021/04/08 04:40:19;;;;;;;7.77;2.30;;;;;;;;;;5080882;28;20234;-67
2021/04/08 04:42:44;;;;;;;6.10;2.87;;;;;;;;;;5084101;28;20185;-67
2021/04/08 04:45:11;;;;;;;3.33;2.17;;;;;;;;;;5085046;28;20650;-66
2021/04/08 04:47:38;;;;;;;6.63;2.10;;;;;;;;;;5081027;28;20673;-67
2021/04/08 04:50:03;;;;;;;9.90;2.27;;;;;;;;;;5079429;28;20207;-67
2021/04/08 04:52:28;;;;;;;5.03;2.13;;;;;;;;;;5082649;28;20661;-67
2021/04/08 04:54:55;;;;;;;2.83;1.77;;;;;;;;;;5084008;28;20180;-67
2021/04/08 04:57:20;;;;;;;5.97;2.50;;;;;;;;;;5085970;28;20226;-67
2021/04/08 04:59:45;;;;;;;5.03;1.93;;;;;;;;;;5077895;28;20646;-67
2021/04/08 05:02:10;;;;;;;7.63;2.23;;;;;;;;;;5078469;28;20288;-66
2021/04/08 05:04:37;;;;;;;3.63;2.20;;;;;;;;;;5082532;28;20168;-67
2021/04/08 05:07:02;;;;;;;3.40;2.17;;;;;;;;;;5081199;28;20268;-67
2021/04/08 05:09:27;;;;;;;7.47;2.70;;;;;;;;;;5076455;28;20593;-66
2021/04/08 05:11:52;;;;;;;4.97;2.47;;;;;;;;;;5088908;28;20284;-66
2021/04/08 05:14:18;;;;;;;6.40;2.20;;;;;;;;;;5082395;28;20188;-66
2021/04/08 05:16:43;;;;;;;4.37;2.50;;;;;;;;;;5078910;28;20247;-67
2021/04/08 05:19:08;;;;;;;4.47;2.00;;;;;;;;;;5076987;28;20225;-65
2021/04/08 05:21:33;;;;;;;8.40;2.73;;;;;;;;;;5080713;28;20252;-66
2021/04/08 05:23:58;;;;;;;3.97;2.10;;;;;;;;;;5077078;28;20222;-66
2021/04/08 05:26:24;;;;;;;5.07;2.30;;;;;;;;;;5080471;28;20225;-66
2021/04/08 05:28:49;;;;;;;4.77;2.60;;;;;;;;;;5080113;28;20712;-66
2021/04/08 05:31:14;;;;;;;2.63;2.10;;;;;;;;;;5073529;28;20578;-67
2021/04/08 05:33:39;;;;;;;3.77;2.30;;;;;;;;;;5077477;28;20190;-66
2021/04/08 05:36:05;;;;;;;5.80;2.20;;;;;;;;;;5077879;28;20666;-67
2021/04/08 05:38:30;;;;;;;1.90;1.73;;;;;;;;;;5079047;28;20189;-67
2021/04/08 05:40:55;;;;;;;4.03;2.50;;;;;;;;;;5078351;28;20207;-66
2021/04/08 05:43:20;;;;;;;4.47;2.07;;;;;;;;;;5080941;28;20188;-67
2021/04/08 05:45:46;;;;;;;5.50;2.37;;;;;;;;;;5075804;28;20173;-65
2021/04/08 05:48:12;;;;;;;5.00;2.23;;;;;;;;;;5081472;28;20641;-67
2021/04/08 05:50:37;;;;;;;2.60;2.10;;;;;;;;;;5081625;28;20200;-65
2021/04/08 05:53:02;;;;;;;2.90;1.80;;;;;;;;;;5076442;28;20198;-66
2021/04/08 05:55:27;;;;;;;3.80;1.70;;;;;;;;;;5087362;28;20211;-67
2021/04/08 05:57:52;;;;;;;5.67;2.20;;;;;;;;;;5084122;28;20180;-67
2021/04/08 06:00:18;;;;;;;3.77;1.83;;;;;;;;;;5078038;28;20207;-67
2021/04/08 06:02:43;;;;;;;5.80;2.43;;;;;;;;;;5085359;28;20679;-67
2021/04/08 06:05:09;;;;;;;4.40;2.00;;;;;;;;;;5076988;28;20177;-68
2021/04/08 06:07:34;;;;;;;2.87;1.80;;;;;;;;;;5079727;28;20520;-66
2021/04/08 06:10:00;;;;;;;3.33;1.90;;;;;;;;;;5083360;28;20169;-67
2021/04/08 06:12:25;;;;;;;9.43;3.23;;;;;;;;;;5077927;28;20243;-67
2021/04/08 06:14:51;;;;;;;8.87;2.70;;;;;;;;;;5078828;28;20180;-66
2021/04/08 06:17:16;;;;;;;6.33;2.40;;;;;;;;;;5078392;28;20321;-67
2021/04/08 06:19:41;;;;;;;4.33;2.57;;;;;;;;;;5081225;28;20665;-67
2021/04/08 06:22:07;;;;;;;4.70;2.33;;;;;;;;;;5079665;28;20200;-66
2021/04/08 06:24:32;;;;;;;7.40;2.47;;;;;;;;;;5073481;28;20651;-67
2021/04/08 06:26:57;;;;;;;6.10;3.27;;;;;;;;;;5084456;28;20180;-66
2021/04/08 06:29:22;;;;;;;6.20;2.80;;;;;;;;;;5085429;28;20611;-68
2021/04/08 06:31:48;;;;;;;3.80;2.73;;;;;;;;;;5083865;28;20192;-67
2021/04/08 06:34:13;;;;;;;5.73;2.47;;;;;;;;;;5078593;28;20199;-67
2021/04/08 06:36:38;;;;;;;3.53;2.67;;;;;;;;;;5079208;28;20698;-67
2021/04/08 06:39:04;;;;;;;5.03;2.40;;;;;;;;;;5075971;28;20181;-67
2021/04/08 06:41:30;;;;;;;4.90;2.53;;;;;;;;;;5081096;28;20207;-67
2021/04/08 06:43:55;;;;;;;5.17;2.60;;;;;;;;;;5070989;28;20564;-67
2021/04/08 06:46:22;;;;;;;2.87;2.13;;;;;;;;;;5081837;28;20676;-66
2021/04/08 06:48:53;;;;;;;5.70;2.77;;;;;;;;;;5078394;28;20180;-67
2021/04/08 06:51:19;;;;;;;5.73;2.80;;;;;;;;;;5085342;28;20247;-67
2021/04/08 06:53:45;;;;;;;4.60;2.83;;;;;;;;;;5076449;28;20576;-67
2021/04/08 06:56:11;;;;;;;2.77;2.47;;;;;;;;;;5077811;28;20181;-67
2021/04/08 06:58:37;;;;;;;3.27;2.53;;;;;;;;;;5068960;28;20191;-66
2021/04/08 07:01:06;;;;;;;8.00;2.73;;;;;;;;;;5081966;28;20215;-66
2021/04/08 07:03:31;;;;;;;6.03;2.67;;;;;;;;;;5079439;28;20192;-64
2021/04/08 07:05:56;;;;;;;3.93;2.67;;;;;;;;;;5074786;28;20558;-67
2021/04/08 07:08:21;;;;;;;4.77;2.70;;;;;;;;;;5076560;28;20271;-67
2021/04/08 07:10:47;;;;;;;4.07;2.90;;;;;;;;;;5076536;28;21313;-67
2021/04/08 07:13:12;;;;;;;8.70;3.10;;;;;;;;;;5070842;28;20282;-67
2021/04/08 07:15:37;;;;;;;4.17;2.50;;;;;;;;;;5064890;28;20689;-67
2021/04/08 07:18:03;;;;;;;4.60;2.20;;;;;;;;;;5065658;28;20180;-67
2021/04/08 07:20:29;;;;;;;4.87;2.20;;;;;;;;;;5063047;28;20228;-66
2021/04/08 07:23:07;;;;;;;6.63;2.30;;;;;;;;;;5066408;28;20401;-67
2021/04/08 07:25:32;;;;;;;4.43;2.00;;;;;;;;;;5066174;28;20169;-66
2021/04/08 07:27:57;;;;;;;2.47;1.80;;;;;;;;;;5065568;28;20523;-65
2021/04/08 07:30:25;;;;;;;9.80;2.30;;;;;;;;;;5064659;28;20677;-65
2021/04/08 07:32:57;;;;;;;5.77;2.40;;;;;;;;;;5065917;28;20545;-65
2021/04/08 07:35:22;;;;;;;4.37;2.30;;;;;;;;;;5064798;28;20279;-66
2021/04/08 07:37:58;;;;;;;6.40;2.20;;;;;;;;;;5065839;28;20267;-66
2021/04/08 07:40:24;;;;;;;5.17;2.30;;;;;;;;;;5065593;28;20199;-66
2021/04/08 07:42:50;;;;;;;4.77;2.20;;;;;;;;;;5069161;28;20188;-66
2021/04/08 07:45:29;;;;;;;9.07;2.30;;;;;;;;;;5068230;28;20169;-66
2021/04/08 07:48:01;;;;;;;4.43;2.13;;;;;;;;;;5065338;28;20173;-67
2021/04/08 07:50:26;;;;;;;7.07;2.10;;;;;;;;;;5065747;28;20227;-67
2021/04/08 07:52:52;;;;;;;4.87;2.17;;;;;;;;;;5068721;28;20181;-66
2021/04/08 07:55:21;;;;;;;4.37;2.50;;;;;;;;;;5075246;28;21676;-67
2021/04/08 07:57:53;;;;;;;5.23;2.70;;;;;;;;;;5068172;28;20206;-65
2021/04/08 08:00:22;;;;;;;7.10;3.60;;;;;;;;;;5079435;28;20246;-66
2021/04/08 08:02:47;;;;;;;2.93;2.40;;;;;;;;;;5069193;28;20184;-65
2021/04/08 08:05:16;;;;;;;4.03;2.43;;;;;;;;;;5069203;28;20824;-66
2021/04/08 08:07:41;;;;;;;3.50;3.07;;;;;;;;;;5071698;28;20230;-65
2021/04/08 08:10:07;;;;;;;5.23;2.80;;;;;;;;;;5069301;28;20201;-65
2021/04/08 08:12:32;;;;;;;3.63;2.97;;;;;;;;;;5073482;28;20253;-66
2021/04/08 08:15:16;;;;;;;11.77;3.20;;;;;;;;;;5068388;28;20561;-66
2021/04/08 08:17:41;;;;;;;4.73;3.20;;;;;;;;;;5068271;28;20164;-66
2021/04/08 08:20:07;;;;;;;4.60;3.10;;;;;;;;;;5067685;28;20207;-66
2021/04/08 08:22:36;;;;;;;6.43;3.70;;;;;;;;;;5074015;28;20199;-67
2021/04/08 08:25:03;;;;;;;6.47;3.20;;;;;;;;;;5072794;28;20184;-66
2021/04/08 08:27:44;;;;;;;6.00;3.27;;;;;;;;;;5079996;28;20191;-67
2021/04/08 08:30:14;;;;;;;8.43;3.50;;;;;;;;;;5088658;28;20756;-66
2021/04/08 08:33:00;;;;;;;7.50;3.70;;;;;;;;;;5070671;28;20210;-65
2021/04/08 08:35:25;;;;;;;6.10;3.53;;;;;;;;;;5068023;28;20214;-66
2021/04/08 08:37:50;;;;;;;4.80;3.37;;;;;;;;;;5071814;28;20916;-65
2021/04/08 08:40:15;;;;;;;4.90;3.33;;;;;;;;;;5070972;28;20209;-66
2021/04/08 08:42:41;;;;;;;8.43;6.23;;;;;;;;;;5070862;28;20181;-66
2021/04/08 08:45:06;;;;;;;4.90;3.77;;;;;;;;;;5071434;28;20212;-67
2021/04/08 08:47:34;;;;;;;5.50;3.93;;;;;;;;;;5069640;28;20169;-66
2021/04/08 08:50:00;;;;;;;5.50;4.07;;;;;;;;;;5069398;28;20794;-67
2021/04/08 08:52:27;;;;;;;4.80;3.67;;;;;;;;;;5072356;28;20245;-64
2021/04/08 08:54:53;;;;;;;6.07;4.20;;;;;;;;;;5068237;28;20185;-66
2021/04/08 08:57:18;;;;;;;6.97;4.03;;;;;;;;;;5070098;28;20188;-65
2021/04/08 08:59:44;;;;;;;5.20;4.40;;;;;;;;;;5078262;28;20544;-67
2021/04/08 09:02:10;;;;;;;4.80;4.13;;;;;;;;;;5070130;28;20208;-65
2021/04/08 09:04:35;;;;;;;7.83;4.70;;;;;;;;;;5068396;28;20175;-67
2021/04/08 09:07:03;;;;;;;6.73;4.10;;;;;;;;;;5073253;28;20230;-65
2021/04/08 09:09:29;;;;;;;6.53;4.40;;;;;;;;;;5071065;28;20195;-66
2021/04/08 09:11:57;;;;;;;7.00;4.33;;;;;;;;;;5068029;28;20224;-65
2021/04/08 09:14:22;;;;;;;8.03;4.80;;;;;;;;;;5072239;28;21466;-66
2021/04/08 09:16:49;;;;;;;8.40;5.83;;;;;;;;;;5072336;28;20219;-68
2021/04/08 09:19:23;;;;;;;6.63;4.47;;;;;;;;;;5069976;28;20215;-64
2021/04/08 09:21:49;;;;;;;11.57;5.47;;;;;;;;;;5071385;28;20306;-66
2021/04/08 09:24:16;;;;;;;8.57;4.57;;;;;;;;;;5077045;28;20177;-66
2021/04/08 09:26:42;;;;;;;7.53;4.57;;;;;;;;;;5079213;28;20185;-67
2021/04/08 09:29:11;;;;;;;7.67;4.97;;;;;;;;;;5068117;28;20783;-68
2021/04/08 09:31:36;;;;;;;6.47;4.90;;;;;;;;;;5068056;28;20208;-68
2021/04/08 09:34:03;;;;;;;6.67;4.53;;;;;;;;;;5062612;28;20188;-67
2021/04/08 09:36:30;;;;;;;9.53;5.00;;;;;;;;;;5068230;28;20240;-67
2021/04/08 09:38:56;;;;;;;11.87;5.03;;;;;;;;;;5075398;28;20192;-68
2021/04/08 09:41:40;;;;;;;9.25;5.43;;;;;;;;;;5063672;28;20207;-65
2021/04/08 09:44:06;;;;;;;8.10;4.97;;;;;;;;;;5065107;28;20177;-68
2021/04/08 09:46:48;;;;;;;9.30;5.37;;;;;;;;;;5069177;28;20173;-66
2021/04/08 09:49:34;;;;;;;6.33;4.50;;;;;;;;;;5067499;28;20212;-67
2021/04/08 09:51:59;;;;;;;6.03;4.47;;;;;;;;;;5075614;28;20204;-68
2021/04/08 09:54:37;;;;;;;8.57;4.80;;;;;;;;;;5076935;28;20191;-66
2021/04/08 09:57:02;;;;;;;8.10;4.97;;;;;;;;;;5063473;28;20188;-67
2021/04/08 09:59:28;;;;;;;9.83;5.00;;;;;;;;;;5062171;28;20180;-66
2021/04/08 10:01:53;;;;;;;12.37;5.77;;;;;;;;;;5062990;28;20216;-68
2021/04/08 10:04:22;;;;;;;7.83;4.87;;;;;;;;;;5061729;28;20278;-67
2021/04/08 10:06:58;;;;;;;5.80;4.73;;;;;;;;;;5069244;28;20273;-68
2021/04/08 10:09:23;;;;;;;10.07;5.33;;;;;;;;;;5062731;28;20256;-68
2021/04/08 10:11:48;;;;;;;10.80;6.37;;;;;;;;;;5067259;28;21729;-68
2021/04/08 10:14:15;;;;;;;8.60;5.83;;;;;;;;;;5061842;28;20188;-66
2021/04/08 10:16:40;;;;;;;6.43;5.13;;;;;;;;;;5068775;28;20559;-68
2021/04/08 10:19:05;;;;;;;9.83;5.93;;;;;;;;;;5063910;28;20207;-68
2021/04/08 10:21:30;;;;;;;8.40;5.60;;;;;;;;;;5063729;28;20303;-68
2021/04/08 10:23:55;;;;;;;9.10;5.50;;;;;;;;;;5062565;28;20173;-68
2021/04/08 10:26:22;;;;;;;8.33;5.83;;;;;;;;;;5062366;28;20251;-66
2021/04/08 10:28:49;;;;;;;17.53;7.87;;;;;;;;;;5062746;28;20563;-67
2021/04/08 10:31:23;;;;;;;8.33;5.97;;;;;;;;;;5066572;28;20196;-65
2021/04/08 10:33:49;;;;;;;7.07;5.50;;;;;;;;;;5066020;28;20187;-66
2021/04/08 10:36:31;;;;;;;7.23;6.10;;;;;;;;;;5071971;28;20192;-66
2021/04/08 10:39:15;;;;;;;8.87;5.17;;;;;;;;;;5065860;28;20184;-67
2021/04/08 10:41:41;;;;;;;10.33;5.37;;;;;;;;;;5066053;28;20219;-67
2021/04/08 10:44:39;;;;;;;6.77;5.47;;;;;;;;;;5063791;28;20185;-69
2021/04/08 10:47:07;;;;;;;7.40;5.47;;;;;;;;;;5063552;28;20678;-69
2021/04/08 10:49:36;;;;;;;7.77;5.47;;;;;;;;;;5064170;28;20184;-67
2021/04/08 10:52:06;;;;;;;9.27;5.63;;;;;;;;;;5067416;28;20203;-67
2021/04/08 10:54:32;;;;;;;8.47;6.30;;;;;;;;;;5063800;28;20204;-67
2021/04/08 10:57:00;;;;;;;7.47;6.57;;;;;;;;;;5061662;28;20249;-68
2021/04/08 10:59:26;;;;;;;7.73;5.80;;;;;;;;;;5063421;28;20177;-68
2021/04/08 11:01:52;;;;;;;9.30;6.33;;;;;;;;;;5065770;28;20208;-69
2021/04/08 11:04:18;;;;;;;7.00;5.87;;;;;;;;;;5066606;28;20237;-69
2021/04/08 11:06:44;;;;;;;7.00;6.10;;;;;;;;;;5065663;28;20792;-68
2021/04/08 11:09:09;;;;;;;7.90;5.93;;;;;;;;;;5063607;28;20802;-68
2021/04/08 11:11:34;;;;;;;8.03;5.40;;;;;;;;;;5066525;28;20224;-68
2021/04/08 11:14:00;;;;;;;7.37;5.33;;;;;;;;;;5064834;28;20207;-68
2021/04/08 11:16:27;;;;;;;9.13;5.47;;;;;;;;;;5063836;28;20599;-68
2021/04/08 11:18:54;;;;;;;5.90;4.90;;;;;;;;;;5064936;28;20701;-68
2021/04/08 11:21:19;;;;;;;7.90;5.53;;;;;;;;;;5069778;28;20215;-68
2021/04/08 11:23:45;;;;;;;6.03;5.20;;;;;;;;;;5069529;28;20650;-68
2021/04/08 11:26:10;;;;;;;6.00;5.20;;;;;;;;;;5068758;28;20183;-68
2021/04/08 11:28:41;;;;;;;7.00;5.13;;;;;;;;;;5068893;28;20203;-69
2021/04/08 11:31:14;;;;;;;7.23;5.27;;;;;;;;;;5065465;28;20211;-67
2021/04/08 11:33:39;;;;;;;7.70;5.83;;;;;;;;;;5066189;28;20638;-68
2021/04/08 11:36:14;;;;;;;8.77;5.43;;;;;;;;;;5066356;28;20203;-66
2021/04/08 11:38:40;;;;;;;6.23;5.33;;;;;;;;;;5066972;28;20207;-69
2021/04/08 11:41:05;;;;;;;6.30;5.53;;;;;;;;;;5074351;28;20208;-68
2021/04/08 11:43:31;;;;;;;5.53;5.03;;;;;;;;;;5071113;28;20318;-67
2021/04/08 11:45:57;;;;;;;5.77;4.83;;;;;;;;;;5069788;28;20508;-69
2021/04/08 11:48:23;;;;;;;7.40;5.00;;;;;;;;;;5074174;28;20200;-67
2021/04/08 11:50:49;;;;;;;5.67;5.10;;;;;;;;;;5071996;28;20673;-69
2021/04/08 11:53:15;;;;;;;8.37;5.77;;;;;;;;;;5068385;28;20240;-69
2021/04/08 11:55:42;;;;;;;8.77;5.60;;;;;;;;;;5073700;28;20192;-67
2021/04/08 11:58:08;;;;;;;7.10;5.50;;;;;;;;;;5065577;28;21029;-68
2021/04/08 12:00:34;;;;;;;6.87;5.57;;;;;;;;;;5065745;28;20586;-69
2021/04/08 12:03:13;;;;;;;9.13;6.03;;;;;;;;;;5069108;28;20756;-68
2021/04/08 12:05:38;;;;;;;10.20;5.70;;;;;;;;;;5067057;28;20747;-69
2021/04/08 12:08:03;;;;;;;8.47;5.60;;;;;;;;;;5078349;28;20165;-66
2021/04/08 12:10:30;;;;;;;6.53;5.83;;;;;;;;;;5068588;28;20674;-68
2021/04/08 12:12:56;;;;;;;7.17;4.93;;;;;;;;;;5070505;28;20739;-68
2021/04/08 12:15:35;;;;;;;6.60;5.47;;;;;;;;;;5065308;28;20195;-67
2021/04/08 12:18:01;;;;;;;7.40;5.73;;;;;;;;;;5069688;28;20176;-67
2021/04/08 12:20:26;;;;;;;7.60;6.03;;;;;;;;;;5066707;28;20570;-67
2021/04/08 12:22:52;;;;;;;7.13;5.40;;;;;;;;;;5076117;28;20196;-68
2021/04/08 12:25:19;;;;;;;5.93;5.33;;;;;;;;;;5067509;28;20558;-67
2021/04/08 12:27:44;;;;;;;7.20;6.17;;;;;;;;;;5072117;28;20634;-66
2021/04/08 12:30:11;;;;;;;7.10;6.40;;;;;;;;;;5078877;28;20208;-67
2021/04/08 12:32:36;;;;;;;6.97;6.27;;;;;;;;;;5067821;28;20181;-67
2021/04/08 12:35:02;;;;;;;8.60;6.43;;;;;;;;;;5069530;28;20474;-68
2021/04/08 12:37:27;;;;;;;6.60;6.00;;;;;;;;;;5076298;28;20599;-68
2021/04/08 12:39:53;;;;;;;8.57;6.53;;;;;;;;;;5079767;28;20165;-67
2021/04/08 12:42:18;;;;;;;7.63;6.93;;;;;;;;;;5078487;28;20212;-68
2021/04/08 12:44:43;;;;;;;8.10;6.53;;;;;;;;;;5068416;28;20189;-68
2021/04/08 12:47:10;;;;;;;7.63;6.23;;;;;;;;;;5067841;28;20180;-68
2021/04/08 12:49:35;;;;;;;10.80;6.83;;;;;;;;;;5080586;28;21030;-68
2021/04/08 12:52:00;;;;;;;7.70;5.57;;;;;;;;;;5078200;28;20215;-68
2021/04/08 12:54:25;;;;;;;7.30;6.17;;;;;;;;;;5064750;28;20617;-68
2021/04/08 12:56:51;;;;;;;6.63;5.53;;;;;;;;;;5067407;28;20665;-68
2021/04/08 12:59:16;;;;;;;6.83;5.50;;;;;;;;;;5066260;28;20606;-67
2021/04/08 13:01:41;;;;;;;6.50;5.83;;;;;;;;;;5065826;28;20648;-67
2021/04/08 13:04:06;;;;;;;7.40;5.87;;;;;;;;;;5066032;28;20782;-67
2021/04/08 13:06:31;;;;;;;9.33;5.87;;;;;;;;;;5066859;28;20172;-68
2021/04/08 13:08:56;;;;;;;6.87;5.60;;;;;;;;;;5062570;28;20177;-67
2021/04/08 13:11:23;;;;;;;9.13;5.90;;;;;;;;;;5068366;28;20211;-68
2021/04/08 13:13:48;;;;;;;6.10;5.50;;;;;;;;;;5064516;28;20368;-68
2021/04/08 13:16:13;;;;;;;7.57;5.77;;;;;;;;;;5069128;28;20190;-67
2021/04/08 13:18:38;;;;;;;6.43;5.83;;;;;;;;;;5064972;28;20180;-68
2021/04/08 13:21:04;;;;;;;7.63;5.57;;;;;;;;;;5064799;28;20208;-68
2021/04/08 13:23:29;;;;;;;8.07;6.10;;;;;;;;;;5065306;28;20267;-68
2021/04/08 13:25:54;;;;;;;10.87;6.60;;;;;;;;;;5065917;28;20251;-68
2021/04/08 13:28:20;;;;;;;7.23;6.50;;;;;;;;;;5068988;28;20651;-68
2021/04/08 13:30:45;;;;;;;8.13;5.38;;;;;;;;;;5064520;28;20753;-68
2021/04/08 13:33:10;;;;;;;6.23;5.63;;;;;;;;;;5063476;28;20190;-68
2021/04/08 13:35:35;;;;;;;6.03;5.30;;;;;;;;;;5062895;28;20204;-67
2021/04/08 13:38:03;;;;;;;6.40;5.80;;;;;;;;;;5061069;28;20192;-68
2021/04/08 13:40:28;;;;;;;7.40;5.93;;;;;;;;;;5065204;28;20242;-67
2021/04/08 13:42:54;;;;;;;8.57;6.10;;;;;;;;;;5065496;28;20520;-68
2021/04/08 13:45:20;;;;;;;8.47;6.70;;;;;;;;;;5062474;28;20180;-68
2021/04/08 13:47:45;;;;;;;8.87;6.53;;;;;;;;;;5068446;28;20599;-68
2021/04/08 13:50:11;;;;;;;7.50;6.23;;;;;;;;;;5064401;28;20238;-68
2021/04/08 13:52:37;;;;;;;6.93;6.23;;;;;;;;;;5066573;28;20283;-69
2021/04/08 13:55:02;;;;;;;9.83;6.47;;;;;;;;;;5062336;28;20549;-68
2021/04/08 13:57:27;;;;;;;6.60;5.90;;;;;;;;;;5069314;28;20197;-69
2021/04/08 13:59:53;;;;;;;6.37;5.77;;;;;;;;;;5062046;28;20176;-68
2021/04/08 14:02:18;;;;;;;7.53;6.10;;;;;;;;;;5064202;28;20672;-68
2021/04/08 14:04:43;;;;;;;7.07;5.37;;;;;;;;;;5063397;28;20607;-67
2021/04/08 14:07:09;;;;;;;7.83;7.03;;;;;;;;;;5068583;28;20664;-67
2021/04/08 14:09:35;;;;;;;6.53;5.83;;;;;;;;;;5063492;28;20181;-68
2021/04/08 14:12:00;;;;;;;6.43;5.83;;;;;;;;;;5085009;28;20204;-68
2021/04/08 14:14:25;;;;;;;6.77;6.10;;;;;;;;;;5082542;28;20662;-67
2021/04/08 14:16:50;;;;;;;7.77;7.03;;;;;;;;;;5069991;28;20408;-67
2021/04/08 14:19:22;;;;;;;6.77;6.07;;;;;;;;;;5063049;28;20613;-68
2021/04/08 14:21:47;;;;;;;8.83;6.27;;;;;;;;;;5065538;28;20212;-68
2021/04/08 14:24:12;;;;;;;7.77;6.83;;;;;;;;;;5062349;28;20199;-68
2021/04/08 14:26:37;;;;;;;8.17;6.03;;;;;;;;;;5064555;28;20652;-68
2021/04/08 14:29:03;;;;;;;6.40;5.80;;;;;;;;;;5065547;28;20204;-68
2021/04/08 14:31:28;;;;;;;7.43;5.80;;;;;;;;;;5068301;28;20394;-68
2021/04/08 14:33:53;;;;;;;7.57;5.80;;;;;;;;;;5061091;28;20230;-66
2021/04/08 14:36:18;;;;;;;6.40;5.80;;;;;;;;;;5069852;28;20558;-68
2021/04/08 14:38:44;;;;;;;7.77;6.23;;;;;;;;;;5062116;28;20188;-69
2021/04/08 14:41:09;;;;;;;7.27;6.57;;;;;;;;;;5064452;28;20580;-68